createdAt,value
2023-05-16T00:00:02.277Z,3.10
2023-05-16T00:02:31.558Z,2.90
2023-05-16T00:04:58.461Z,3.10
2023-05-16T00:07:25.361Z,3.10
2023-05-16T00:09:52.265Z,3.30
2023-05-16T00:12:19.988Z,2.90
2023-05-16T00:14:48.109Z,3.10
2023-05-16T00:17:17.796Z,3.50
2023-05-16T00:19:44.983Z,3.30
2023-05-16T00:22:11.909Z,3.00
2023-05-16T00:24:39.567Z,3.00
2023-05-16T00:27:07.150Z,3.40
2023-05-16T00:29:37.258Z,3.30
2023-05-16T00:32:04.715Z,3.40
2023-05-16T00:34:31.828Z,3.20
2023-05-16T00:36:58.745Z,2.80
2023-05-16T00:39:25.621Z,3.10
2023-05-16T00:41:52.667Z,3.10
2023-05-16T00:44:20.172Z,3.30
2023-05-16T00:46:47.599Z,3.20
2023-05-16T00:49:14.499Z,2.80
2023-05-16T00:51:41.611Z,3.30
2023-05-16T00:54:08.405Z,3.70
2023-05-16T00:56:35.408Z,3.10
2023-05-16T00:59:02.208Z,2.80
2023-05-16T01:01:29.028Z,2.60
2023-05-16T01:03:56.092Z,3.40
2023-05-16T01:06:23.311Z,3.30
2023-05-16T01:08:50.431Z,3.10
2023-05-16T01:11:27.316Z,3.60
2023-05-16T01:14:09.758Z,2.80
2023-05-16T01:16:44.783Z,2.60
2023-05-16T01:19:32.832Z,3.40
2023-05-16T01:22:05.725Z,2.90
2023-05-16T01:24:32.731Z,2.90
2023-05-16T01:26:59.663Z,2.80
2023-05-16T01:29:26.936Z,2.80
2023-05-16T01:31:53.953Z,3.80
2023-05-16T01:34:21.064Z,3.20
2023-05-16T01:36:53.661Z,3.10
2023-05-16T01:39:44.556Z,3.20
2023-05-16T01:42:15.667Z,3.30
2023-05-16T01:45:07.606Z,3.00
2023-05-16T01:47:34.492Z,3.30
2023-05-16T01:50:14.752Z,3.40
2023-05-16T01:53:04.280Z,3.00
2023-05-16T01:55:52.115Z,3.40
2023-05-16T01:58:23.974Z,3.20
2023-05-16T02:00:53.658Z,3.20
2023-05-16T02:03:20.823Z,3.00
2023-05-16T02:05:47.863Z,3.00
2023-05-16T02:08:14.740Z,3.10
2023-05-16T02:10:42.093Z,3.30
2023-05-16T02:13:08.956Z,3.30
2023-05-16T02:15:35.883Z,3.40
2023-05-16T02:18:02.822Z,3.50
2023-05-16T02:20:29.885Z,3.20
2023-05-16T02:22:56.779Z,3.20
2023-05-16T02:25:25.187Z,3.10
2023-05-16T02:27:52.306Z,3.50
2023-05-16T02:30:19.317Z,3.20
2023-05-16T02:32:46.199Z,3.60
2023-05-16T02:35:13.123Z,3.30
2023-05-16T02:37:40.906Z,2.80
2023-05-16T02:40:09.171Z,2.90
2023-05-16T02:42:36.814Z,3.00
2023-05-16T02:45:04.367Z,2.80
2023-05-16T02:47:31.246Z,3.30
2023-05-16T02:49:58.109Z,3.00
2023-05-16T02:52:25.217Z,2.90
2023-05-16T02:55:04.716Z,3.20
2023-05-16T02:57:39.048Z,3.30
2023-05-16T03:00:07.039Z,2.90
2023-05-16T03:02:34.113Z,3.20
2023-05-16T03:05:01.315Z,2.80
2023-05-16T03:07:28.287Z,3.00
2023-05-16T03:09:55.329Z,3.40
2023-05-16T03:12:22.199Z,3.00
2023-05-16T03:14:49.219Z,3.90
2023-05-16T03:17:16.003Z,3.30
2023-05-16T03:19:42.795Z,3.30
2023-05-16T03:22:09.760Z,3.20
2023-05-16T03:24:36.562Z,3.30
2023-05-16T03:27:04.758Z,3.40
2023-05-16T03:29:31.635Z,3.30
2023-05-16T03:31:58.568Z,3.40
2023-05-16T03:34:25.565Z,3.10
2023-05-16T03:36:52.564Z,2.90
2023-05-16T03:39:19.555Z,3.10
2023-05-16T03:41:46.452Z,3.20
2023-05-16T03:44:13.255Z,3.20
2023-05-16T03:46:40.049Z,3.40
2023-05-16T03:49:06.957Z,3.50
2023-05-16T03:51:34.272Z,3.00
2023-05-16T03:54:01.205Z,3.10
2023-05-16T03:56:28.266Z,3.10
2023-05-16T03:58:55.268Z,2.80
2023-05-16T04:01:22.848Z,3.10
2023-05-16T04:03:50.940Z,3.00
2023-05-16T04:06:18.122Z,3.40
2023-05-16T04:08:45.094Z,3.00
2023-05-16T04:11:12.335Z,3.20
2023-05-16T04:13:39.250Z,3.20
2023-05-16T04:16:07.070Z,3.50
2023-05-16T04:18:34.055Z,3.00
2023-05-16T04:21:01.285Z,3.80
2023-05-16T04:23:28.381Z,3.30
2023-05-16T04:25:57.125Z,3.20
2023-05-16T04:28:23.944Z,3.10
2023-05-16T04:30:51.439Z,3.50
2023-05-16T04:33:18.972Z,3.40
2023-05-16T04:35:45.754Z,3.20
2023-05-16T04:38:12.564Z,3.30
2023-05-16T04:40:40.575Z,2.80
2023-05-16T04:43:08.374Z,3.30
2023-05-16T04:45:37.399Z,3.70
2023-05-16T04:48:04.804Z,2.90
2023-05-16T04:50:31.877Z,3.30
2023-05-16T04:52:58.776Z,3.10
2023-05-16T04:55:26.166Z,3.40
2023-05-16T04:57:53.692Z,3.30
2023-05-16T05:00:21.252Z,3.30
2023-05-16T05:02:48.183Z,3.40
2023-05-16T05:05:15.187Z,3.20
2023-05-16T05:07:42.957Z,3.80
2023-05-16T05:10:11.116Z,3.80
2023-05-16T05:12:38.036Z,3.40
2023-05-16T05:15:06.601Z,3.50
2023-05-16T05:17:33.761Z,4.20
2023-05-16T05:20:02.941Z,3.30
2023-05-16T05:22:30.524Z,3.60
2023-05-16T05:24:57.340Z,3.10
2023-05-16T05:27:25.652Z,3.60
2023-05-16T05:29:52.449Z,3.60
2023-05-16T05:32:19.299Z,3.40
2023-05-16T05:34:46.053Z,3.40
2023-05-16T05:37:12.843Z,3.90
2023-05-16T05:39:39.653Z,3.60
2023-05-16T05:42:06.963Z,3.80
2023-05-16T05:44:33.851Z,3.60
2023-05-16T05:47:00.833Z,3.10
2023-05-16T05:49:27.676Z,3.50
2023-05-16T05:51:54.642Z,3.60
2023-05-16T05:54:21.485Z,3.60
2023-05-16T05:56:48.387Z,3.80
2023-05-16T05:59:15.644Z,3.80
2023-05-16T06:01:44.152Z,3.50
2023-05-16T06:04:11.339Z,4.10
2023-05-16T06:06:38.639Z,3.70
2023-05-16T06:09:05.828Z,3.70
2023-05-16T06:11:32.842Z,3.50
2023-05-16T06:13:59.668Z,3.40
2023-05-16T06:16:26.676Z,4.00
2023-05-16T06:18:53.674Z,3.60
2023-05-16T06:21:20.687Z,3.90
2023-05-16T06:23:47.866Z,3.50
2023-05-16T06:26:14.767Z,3.90
2023-05-16T06:28:41.586Z,4.10
2023-05-16T06:31:08.538Z,3.70
2023-05-16T06:33:35.848Z,3.40
2023-05-16T06:36:02.673Z,4.40
2023-05-16T06:38:29.580Z,3.90
2023-05-16T06:40:56.472Z,3.20
2023-05-16T06:43:23.413Z,3.50
2023-05-16T06:45:50.311Z,3.30
2023-05-16T06:48:18.381Z,3.60
2023-05-16T06:50:52.406Z,3.30
2023-05-16T06:53:19.333Z,3.80
2023-05-16T06:55:47.083Z,3.50
2023-05-16T06:58:14.125Z,3.20
2023-05-16T07:00:41.934Z,3.30
2023-05-16T07:03:08.970Z,3.50
2023-05-16T07:05:36.300Z,3.60
2023-05-16T07:08:04.637Z,3.30
2023-05-16T07:10:33.394Z,3.60
2023-05-16T07:13:01.656Z,3.10
2023-05-16T07:15:28.931Z,3.70
2023-05-16T07:17:56.219Z,3.80
2023-05-16T07:20:23.404Z,3.00
2023-05-16T07:22:50.369Z,3.70
2023-05-16T07:25:17.512Z,3.90
2023-05-16T07:27:45.443Z,3.60
2023-05-16T07:30:13.577Z,3.70
2023-05-16T07:32:41.146Z,4.10
2023-05-16T07:35:09.447Z,3.40
2023-05-16T07:37:36.583Z,3.60
2023-05-16T07:40:04.017Z,3.70
2023-05-16T07:42:31.905Z,3.50
2023-05-16T07:44:58.815Z,3.90
2023-05-16T07:47:25.982Z,3.80
2023-05-16T07:49:53.130Z,3.60
2023-05-16T07:52:20.044Z,3.60
2023-05-16T07:54:47.446Z,3.40
2023-05-16T07:57:15.451Z,3.80
2023-05-16T07:59:43.145Z,3.50
2023-05-16T08:02:11.039Z,3.80
2023-05-16T08:04:38.743Z,3.40
2023-05-16T08:07:06.196Z,3.90
2023-05-16T08:09:33.871Z,3.70
2023-05-16T08:12:03.961Z,2.90
2023-05-16T08:14:32.459Z,3.30
2023-05-16T08:17:00.606Z,3.30
2023-05-16T08:19:28.202Z,3.50
2023-05-16T08:21:55.275Z,3.40
2023-05-16T08:24:22.157Z,3.80
2023-05-16T08:26:49.027Z,3.30
2023-05-16T08:29:16.152Z,3.70
2023-05-16T08:31:43.721Z,4.10
2023-05-16T08:34:10.688Z,3.90
2023-05-16T08:37:43.527Z,4.10
2023-05-16T08:40:29.378Z,4.00
2023-05-16T08:42:56.313Z,3.60
2023-05-16T08:45:23.424Z,3.90
2023-05-16T08:47:51.707Z,4.30
2023-05-16T08:50:18.737Z,3.50
2023-05-16T08:52:45.737Z,4.00
2023-05-16T08:55:12.823Z,4.10
2023-05-16T08:57:40.434Z,4.40
2023-05-16T09:00:12.229Z,3.90
2023-05-16T09:02:43.498Z,4.10
2023-05-16T09:05:14.961Z,4.00
2023-05-16T09:07:42.690Z,3.60
2023-05-16T09:10:10.861Z,3.10
2023-05-16T09:12:39.222Z,3.90
2023-05-16T09:15:07.211Z,3.40
2023-05-16T09:17:44.933Z,3.00
2023-05-16T09:20:16.502Z,3.30
2023-05-16T09:22:57.321Z,3.30
2023-05-16T09:25:30.349Z,3.30
2023-05-16T09:27:59.604Z,3.50
2023-05-16T09:30:34.275Z,3.30
2023-05-16T09:33:01.974Z,3.20
2023-05-16T09:37:59.293Z,3.10
2023-05-16T09:40:26.453Z,3.00
2023-05-16T09:43:07.212Z,3.50
2023-05-16T09:45:35.026Z,3.40
2023-05-16T09:48:05.738Z,3.30
2023-05-16T09:50:34.779Z,3.10
2023-05-16T09:53:02.390Z,3.70
2023-05-16T09:55:29.720Z,3.00
2023-05-16T09:57:56.759Z,3.60
2023-05-16T10:00:23.891Z,3.30
2023-05-16T10:02:51.130Z,3.80
2023-05-16T10:05:19.018Z,3.00
2023-05-16T10:07:46.211Z,3.20
2023-05-16T10:10:13.040Z,3.00
2023-05-16T10:12:39.988Z,3.10
2023-05-16T10:15:07.994Z,3.10
2023-05-16T10:17:37.207Z,3.30
2023-05-16T10:20:06.965Z,3.50
2023-05-16T10:22:35.863Z,2.90
2023-05-16T10:25:20.785Z,3.40
2023-05-16T10:27:47.677Z,3.00
2023-05-16T10:30:14.609Z,3.70
2023-05-16T10:32:43.056Z,3.50
2023-05-16T10:35:10.770Z,3.50
2023-05-16T10:37:37.688Z,3.40
2023-05-16T10:40:07.910Z,3.50
2023-05-16T10:42:35.249Z,3.40
2023-05-16T10:45:21.290Z,3.20
2023-05-16T10:47:59.104Z,3.50
2023-05-16T10:50:36.319Z,3.60
2023-05-16T10:53:19.821Z,3.50
2023-05-16T10:58:43.380Z,3.60
2023-05-16T11:04:00.240Z,3.50
2023-05-16T11:06:34.192Z,3.70
2023-05-16T11:09:05.943Z,3.50
2023-05-16T11:11:58.054Z,3.50
2023-05-16T11:14:34.174Z,3.50
2023-05-16T11:17:07.586Z,3.40
2023-05-16T11:19:47.980Z,3.40
2023-05-16T11:22:22.059Z,3.40
2023-05-16T11:25:09.590Z,3.30
2023-05-16T11:27:57.737Z,3.70
2023-05-16T11:30:24.580Z,3.20
2023-05-16T11:32:51.689Z,3.70
2023-05-16T11:35:18.653Z,3.70
2023-05-16T11:37:45.772Z,3.70
2023-05-16T11:40:13.915Z,4.10
2023-05-16T11:42:42.874Z,3.70
2023-05-16T11:45:12.437Z,4.10
2023-05-16T11:47:40.196Z,3.70
2023-05-16T11:50:46.029Z,3.80
2023-05-16T11:53:14.362Z,3.10
2023-05-16T11:55:42.616Z,4.00
2023-05-16T11:58:10.334Z,3.10
2023-05-16T12:00:37.310Z,3.50
2023-05-16T12:03:06.149Z,3.90
2023-05-16T12:05:34.981Z,3.10
2023-05-16T12:08:03.024Z,3.50
2023-05-16T12:10:31.496Z,3.20
2023-05-16T12:12:58.345Z,3.70
2023-05-16T12:15:25.669Z,3.30
2023-05-16T12:17:52.848Z,3.50
2023-05-16T12:20:20.053Z,3.20
2023-05-16T12:22:47.121Z,3.70
2023-05-16T12:25:32.177Z,3.70
2023-05-16T12:28:03.217Z,3.10
2023-05-16T12:30:33.060Z,3.50
2023-05-16T12:33:07.936Z,3.40
2023-05-16T12:35:36.264Z,3.30
2023-05-16T12:38:10.666Z,3.20
2023-05-16T12:40:38.179Z,4.10
2023-05-16T12:43:06.659Z,3.60
2023-05-16T12:45:35.317Z,3.40
2023-05-16T12:48:08.936Z,3.70
2023-05-16T12:50:39.670Z,3.90
2023-05-16T12:53:12.042Z,3.80
2023-05-16T12:55:38.966Z,3.80
2023-05-16T12:58:06.176Z,3.80
2023-05-16T13:00:33.146Z,4.20
2023-05-16T13:03:00.292Z,3.30
2023-05-16T13:05:29.280Z,4.10
2023-05-16T13:07:56.160Z,3.80
2023-05-16T13:10:23.178Z,3.70
2023-05-16T13:12:50.143Z,3.70
2023-05-16T13:15:16.981Z,4.40
2023-05-16T13:17:44.560Z,3.40
2023-05-16T13:20:15.525Z,3.60
2023-05-16T13:22:43.222Z,3.90
2023-05-16T13:25:10.838Z,4.10
2023-05-16T13:27:37.746Z,3.80
2023-05-16T13:30:05.204Z,4.20
2023-05-16T13:32:32.093Z,3.60
2023-05-16T13:34:58.969Z,3.50
2023-05-16T13:37:26.009Z,3.70
2023-05-16T13:39:54.935Z,4.30
2023-05-16T13:42:22.576Z,3.90
2023-05-16T13:44:49.898Z,3.40
2023-05-16T13:47:16.850Z,3.40
2023-05-16T13:49:43.877Z,3.50
2023-05-16T13:52:10.752Z,4.00
2023-05-16T13:54:39.701Z,3.80
2023-05-16T13:57:07.544Z,3.70
2023-05-16T14:02:04.990Z,4.20
2023-05-16T14:04:31.785Z,4.00
2023-05-16T14:06:58.863Z,4.40
2023-05-16T14:09:25.694Z,3.70
2023-05-16T14:11:52.798Z,3.70
2023-05-16T14:14:19.629Z,3.60
2023-05-16T14:16:47.474Z,3.80
2023-05-16T14:19:17.320Z,4.30
2023-05-16T14:21:45.235Z,3.60
2023-05-16T14:24:12.078Z,3.70
2023-05-16T14:26:38.861Z,3.60
2023-05-16T14:29:06.000Z,4.10
2023-05-16T14:31:33.469Z,3.50
2023-05-16T14:34:00.672Z,3.90
2023-05-16T14:36:27.537Z,3.40
2023-05-16T14:38:54.867Z,4.10
2023-05-16T14:41:22.736Z,7.40
2023-05-16T14:43:49.576Z,4.60
2023-05-16T14:46:17.444Z,6.40
2023-05-16T14:48:44.408Z,5.60
2023-05-16T14:51:12.090Z,5.50
2023-05-16T14:53:38.948Z,4.60
2023-05-16T14:56:06.298Z,5.10
2023-05-16T14:58:33.161Z,7.00
2023-05-16T15:01:00.017Z,5.80
2023-05-16T15:03:27.207Z,6.80
2023-05-16T15:05:54.789Z,3.80
2023-05-16T15:08:22.391Z,5.50
2023-05-16T15:10:49.280Z,9.70
2023-05-16T15:13:16.250Z,4.30
2023-05-16T15:15:43.447Z,6.20
2023-05-16T15:18:11.328Z,5.20
2023-05-16T15:20:39.734Z,4.40
2023-05-16T15:23:07.201Z,5.20
2023-05-16T15:25:34.034Z,5.00
2023-05-16T15:28:01.407Z,4.40
2023-05-16T15:30:28.428Z,3.80
2023-05-16T15:32:55.546Z,3.70
2023-05-16T15:35:22.760Z,3.40
2023-05-16T15:37:50.934Z,3.30
2023-05-16T15:40:18.341Z,3.10
2023-05-16T15:42:46.830Z,3.50
2023-05-16T15:45:13.656Z,3.90
2023-05-16T15:47:42.076Z,4.00
2023-05-16T15:50:10.094Z,4.50
2023-05-16T15:52:37.228Z,3.80
2023-05-16T15:55:04.602Z,4.70
2023-05-16T15:57:31.691Z,3.40
2023-05-16T15:59:59.160Z,3.30
2023-05-16T16:02:26.158Z,4.00
2023-05-16T16:04:53.297Z,4.20
2023-05-16T16:07:20.312Z,3.90
2023-05-16T16:09:47.280Z,4.20
2023-05-16T16:12:14.183Z,4.40
2023-05-16T16:14:41.415Z,6.70
2023-05-16T16:17:08.704Z,4.70
2023-05-16T16:19:36.029Z,4.40
2023-05-16T16:22:02.955Z,4.50
2023-05-16T16:24:29.756Z,4.70
2023-05-16T16:26:56.686Z,4.80
2023-05-16T16:29:23.858Z,4.80
2023-05-16T16:31:50.838Z,4.90
2023-05-16T16:34:17.766Z,4.20
2023-05-16T16:36:44.650Z,4.70
2023-05-16T16:39:11.563Z,3.60
2023-05-16T16:41:38.446Z,3.50
2023-05-16T16:44:05.535Z,3.80
2023-05-16T16:46:32.425Z,3.70
2023-05-16T16:48:59.328Z,4.00
2023-05-16T16:51:28.424Z,4.30
2023-05-16T16:53:55.594Z,3.60
2023-05-16T16:56:22.849Z,3.70
2023-05-16T16:58:49.765Z,4.00
2023-05-16T17:01:16.869Z,4.10
2023-05-16T17:03:43.904Z,7.50
2023-05-16T17:06:10.939Z,6.90
2023-05-16T17:08:37.840Z,6.00
2023-05-16T17:11:05.520Z,4.20
2023-05-16T17:13:34.032Z,4.30
2023-05-16T17:16:01.605Z,5.50
2023-05-16T17:18:28.483Z,7.50
2023-05-16T17:20:56.086Z,5.40
2023-05-16T17:23:23.078Z,4.10
2023-05-16T17:25:50.282Z,3.70
2023-05-16T17:28:17.142Z,3.70
2023-05-16T17:30:44.015Z,4.30
2023-05-16T17:33:11.002Z,6.70
2023-05-16T17:35:38.077Z,7.20
2023-05-16T17:38:05.192Z,5.40
2023-05-16T17:40:34.197Z,5.00
2023-05-16T17:43:01.306Z,4.40
2023-05-16T17:45:28.656Z,4.80
2023-05-16T17:47:56.183Z,6.20
2023-05-16T17:50:23.343Z,6.20
2023-05-16T17:52:50.712Z,5.30
2023-05-16T17:55:17.830Z,6.20
2023-05-16T17:57:46.754Z,5.40
2023-05-16T18:00:15.091Z,5.60
2023-05-16T18:02:42.601Z,5.00
2023-05-16T18:05:10.435Z,5.30
2023-05-16T18:07:37.548Z,5.50
2023-05-16T18:10:05.174Z,5.90
2023-05-16T18:12:32.042Z,5.60
2023-05-16T18:14:58.922Z,5.40
2023-05-16T18:17:25.758Z,5.60
2023-05-16T18:19:52.881Z,6.20
2023-05-16T18:22:19.897Z,5.60
2023-05-16T18:24:46.935Z,5.00
2023-05-16T18:27:13.953Z,5.90
2023-05-16T18:29:41.162Z,5.00
2023-05-16T18:32:08.155Z,5.20
2023-05-16T18:34:35.108Z,4.80
2023-05-16T18:37:02.023Z,5.00
2023-05-16T18:39:29.031Z,5.00
2023-05-16T18:41:56.053Z,5.70
2023-05-16T18:44:23.036Z,5.70
2023-05-16T18:46:49.910Z,5.90
2023-05-16T18:49:16.808Z,6.00
2023-05-16T18:51:44.367Z,5.60
2023-05-16T18:54:11.170Z,5.40
2023-05-16T18:56:38.016Z,5.70
2023-05-16T18:59:04.932Z,5.50
2023-05-16T19:01:31.806Z,4.70
2023-05-16T19:03:58.958Z,5.10
2023-05-16T19:06:26.895Z,6.20
2023-05-16T19:08:54.889Z,5.60
2023-05-16T19:11:22.763Z,6.40
2023-05-16T19:13:49.563Z,6.30
2023-05-16T19:16:16.542Z,5.80
2023-05-16T19:18:43.956Z,6.20
2023-05-16T19:21:13.672Z,5.80
2023-05-16T19:23:41.166Z,5.90
2023-05-16T19:26:08.573Z,5.70
2023-05-16T19:28:35.479Z,5.60
2023-05-16T19:31:02.388Z,5.40
2023-05-16T19:33:31.796Z,5.80
2023-05-16T19:35:58.862Z,5.70
2023-05-16T19:38:26.614Z,6.10
2023-05-16T19:40:53.650Z,6.70
2023-05-16T19:43:20.906Z,6.50
2023-05-16T19:45:48.093Z,6.00
2023-05-16T19:48:15.180Z,5.90
2023-05-16T19:50:42.634Z,5.20
2023-05-16T19:53:09.500Z,5.10
2023-05-16T19:55:37.885Z,4.60
2023-05-16T19:58:05.375Z,5.00
2023-05-16T20:00:32.313Z,5.30
2023-05-16T20:02:59.731Z,5.00
2023-05-16T20:05:27.477Z,4.90
2023-05-16T20:07:55.504Z,4.70
2023-05-16T20:10:22.556Z,5.40
2023-05-16T20:12:49.822Z,5.50
2023-05-16T20:15:17.146Z,4.70
2023-05-16T20:17:44.135Z,5.30
2023-05-16T20:20:11.445Z,5.90
2023-05-16T20:22:42.023Z,5.10
2023-05-16T20:25:09.885Z,5.10
2023-05-16T20:27:36.782Z,4.90
2023-05-16T20:30:05.101Z,5.20
2023-05-16T20:32:32.470Z,4.80
2023-05-16T20:34:59.422Z,5.40
2023-05-16T20:37:26.828Z,5.00
2023-05-16T20:39:54.607Z,5.70
2023-05-16T20:42:21.829Z,4.90
2023-05-16T20:44:48.725Z,4.90
2023-05-16T20:47:17.198Z,5.00
2023-05-16T20:49:44.659Z,4.80
2023-05-16T20:52:14.358Z,4.90
2023-05-16T20:54:41.994Z,5.50
2023-05-16T20:57:08.976Z,5.00
2023-05-16T20:59:37.540Z,4.60
2023-05-16T21:02:06.155Z,4.80
2023-05-16T21:04:33.165Z,4.80
2023-05-16T21:07:00.219Z,4.90
2023-05-16T21:09:27.080Z,4.10
2023-05-16T21:11:53.993Z,4.50
2023-05-16T21:14:20.803Z,4.60
2023-05-16T21:16:47.649Z,5.00
2023-05-16T21:19:14.764Z,5.00
2023-05-16T21:21:41.690Z,4.50
2023-05-16T21:24:08.577Z,4.90
2023-05-16T21:26:35.500Z,5.00
2023-05-16T21:29:02.404Z,5.40
2023-05-16T21:31:29.346Z,5.30
2023-05-16T21:33:56.453Z,4.50
2023-05-16T21:36:23.397Z,4.80
2023-05-16T21:38:50.214Z,4.40
2023-05-16T21:41:18.268Z,4.30
2023-05-16T21:43:45.405Z,4.50
2023-05-16T21:46:12.271Z,4.90
2023-05-16T21:48:39.381Z,4.30
2023-05-16T21:51:06.526Z,4.10
2023-05-16T21:53:34.520Z,3.60
2023-05-16T21:56:01.381Z,4.70
2023-05-16T21:58:28.294Z,4.40
2023-05-16T22:00:55.316Z,3.90
2023-05-16T22:03:22.840Z,4.10
2023-05-16T22:05:49.921Z,4.50
2023-05-16T22:08:16.969Z,4.40
2023-05-16T22:10:44.029Z,4.10
2023-05-16T22:13:10.864Z,4.10
2023-05-16T22:15:37.972Z,3.90
2023-05-16T22:18:05.660Z,4.10
2023-05-16T22:20:32.677Z,4.80
2023-05-16T22:22:59.646Z,4.00
2023-05-16T22:25:26.846Z,4.30
2023-05-16T22:27:53.959Z,4.30
2023-05-16T22:30:20.817Z,4.20
2023-05-16T22:32:47.874Z,4.90
2023-05-16T22:35:15.036Z,4.60
2023-05-16T22:37:41.991Z,5.30
2023-05-16T22:40:09.550Z,5.10
2023-05-16T22:42:36.504Z,4.70
2023-05-16T22:45:03.978Z,4.90
2023-05-16T22:47:31.195Z,5.30
2023-05-16T22:49:58.070Z,4.10
2023-05-16T22:52:25.059Z,4.70
2023-05-16T22:54:52.145Z,4.70
2023-05-16T22:57:19.113Z,4.20
2023-05-16T22:59:46.327Z,4.80
2023-05-16T23:02:13.673Z,4.30
2023-05-16T23:04:40.706Z,5.00
2023-05-16T23:07:07.666Z,4.30
2023-05-16T23:09:34.576Z,5.00
2023-05-16T23:12:01.928Z,5.10
2023-05-16T23:14:28.851Z,4.30
2023-05-16T23:16:55.732Z,4.10
2023-05-16T23:19:22.736Z,4.50
2023-05-16T23:21:49.760Z,4.10
2023-05-16T23:24:17.030Z,4.30
2023-05-16T23:26:43.968Z,4.20
2023-05-16T23:29:10.801Z,4.60
2023-05-16T23:31:37.777Z,3.80
2023-05-16T23:34:04.746Z,4.30
2023-05-16T23:36:32.064Z,4.20
2023-05-16T23:38:58.854Z,4.40
2023-05-16T23:41:25.796Z,4.70
2023-05-16T23:43:52.731Z,4.20
2023-05-16T23:46:19.558Z,4.00
2023-05-16T23:48:46.607Z,4.00
2023-05-16T23:51:13.660Z,4.50
2023-05-16T23:53:40.493Z,4.40
2023-05-16T23:56:07.867Z,3.70
2023-05-16T23:58:34.843Z,3.80
